createdAt,value
2023-01-20T00:01:09.927Z,95265.53
2023-01-20T00:03:36.636Z,95265.78
2023-01-20T00:06:03.405Z,95271.84
2023-01-20T00:08:29.930Z,95271.59
2023-01-20T00:10:56.639Z,95291.56
2023-01-20T00:13:23.207Z,95298.09
2023-01-20T00:15:49.799Z,95297.16
2023-01-20T00:18:16.307Z,95310.34
2023-01-20T00:20:42.993Z,95318.66
2023-01-20T00:23:09.487Z,95319.22
2023-01-20T00:25:36.459Z,95324.47
2023-01-20T00:28:03.670Z,95329.22
2023-01-20T00:30:30.211Z,95331.47
2023-01-20T00:32:56.766Z,95333.50
2023-01-20T00:35:23.334Z,95345.84
2023-01-20T00:37:49.860Z,95345.38
2023-01-20T00:40:16.561Z,95351.31
2023-01-20T00:42:43.090Z,95348.47
2023-01-20T00:45:09.722Z,95352.63
2023-01-20T00:47:36.489Z,95360.84
2023-01-20T00:50:03.102Z,95360.84
2023-01-20T00:52:29.609Z,95359.28
2023-01-20T00:54:56.175Z,95361.78
2023-01-20T00:57:22.668Z,95368.06
2023-01-20T00:59:49.181Z,95378.44
2023-01-20T01:02:15.751Z,95381.97
2023-01-20T01:04:42.305Z,95380.44
2023-01-20T01:07:09.307Z,95384.03
2023-01-20T01:09:35.943Z,95380.56
2023-01-20T01:12:02.419Z,95380.78
2023-01-20T01:14:30.666Z,95368.91
2023-01-20T01:16:57.531Z,95364.63
2023-01-20T01:19:24.089Z,95355.72
2023-01-20T01:21:50.599Z,95359.63
2023-01-20T01:24:17.182Z,95343.50
2023-01-20T01:26:43.689Z,95344.44
2023-01-20T01:29:10.214Z,95336.72
2023-01-20T01:31:36.758Z,95335.66
2023-01-20T01:34:03.395Z,95349.56
2023-01-20T01:36:29.904Z,95344.78
2023-01-20T01:38:58.850Z,95349.69
2023-01-20T01:41:26.129Z,95346.47
2023-01-20T01:44:06.035Z,95343.00
2023-01-20T01:46:32.949Z,95357.72
2023-01-20T01:49:01.355Z,95350.13
2023-01-20T01:51:30.399Z,95353.19
2023-01-20T01:54:00.067Z,95358.66
2023-01-20T01:56:27.632Z,95353.56
2023-01-20T01:58:56.009Z,95357.13
2023-01-20T02:01:22.799Z,95351.88
2023-01-20T02:04:01.129Z,95352.00
2023-01-20T02:06:31.751Z,95351.06
2023-01-20T02:08:59.290Z,95351.19
2023-01-20T02:11:25.852Z,95354.00
2023-01-20T02:13:52.348Z,95344.41
2023-01-20T02:16:37.674Z,95352.50
2023-01-20T02:19:06.908Z,95356.03
2023-01-20T02:21:48.649Z,95351.88
2023-01-20T02:24:15.128Z,95357.22
2023-01-20T02:26:44.408Z,95350.09
2023-01-20T02:29:33.832Z,95361.47
2023-01-20T02:32:00.344Z,95361.84
2023-01-20T02:34:59.112Z,95352.22
2023-01-20T02:37:27.845Z,95339.50
2023-01-20T02:39:58.822Z,95336.78
2023-01-20T02:42:28.259Z,95344.50
2023-01-20T02:45:03.071Z,95341.06
2023-01-20T02:47:41.385Z,95343.91
2023-01-20T02:50:31.854Z,95347.72
2023-01-20T02:52:59.630Z,95353.25
2023-01-20T02:55:46.514Z,95347.09
2023-01-20T02:58:30.367Z,95350.41
2023-01-20T03:00:59.955Z,95341.88
2023-01-20T03:03:30.687Z,95343.66
2023-01-20T03:06:00.009Z,95340.44
2023-01-20T03:08:28.764Z,95346.84
2023-01-20T03:10:58.103Z,95347.91
2023-01-20T03:13:27.430Z,95345.28
2023-01-20T03:15:57.976Z,95344.78
2023-01-20T03:18:24.682Z,95351.91
2023-01-20T03:20:51.632Z,95354.72
2023-01-20T03:23:18.133Z,95355.69
2023-01-20T03:25:45.979Z,95350.69
2023-01-20T03:28:13.260Z,95342.03
2023-01-20T03:30:39.843Z,95352.59
2023-01-20T03:33:06.479Z,95348.19
2023-01-20T03:35:34.337Z,95361.13
2023-01-20T03:38:00.877Z,95348.06
2023-01-20T03:40:31.727Z,95353.41
2023-01-20T03:46:25.403Z,95358.91
2023-01-20T03:48:58.220Z,95350.88
2023-01-20T03:51:28.005Z,95353.38
2023-01-20T03:53:58.346Z,95357.53
2023-01-20T03:56:40.272Z,95352.31
2023-01-20T03:59:09.189Z,95352.63
2023-01-20T04:01:40.987Z,95350.38
2023-01-20T04:04:09.992Z,95356.31
2023-01-20T04:06:37.500Z,95355.59
2023-01-20T04:09:09.659Z,95354.75
2023-01-20T04:11:36.190Z,95361.63
2023-01-20T04:14:02.978Z,95364.03
2023-01-20T04:16:29.465Z,95367.47
2023-01-20T04:18:56.061Z,95360.81
2023-01-20T04:21:37.122Z,95371.25
2023-01-20T04:24:15.625Z,95364.38
2023-01-20T04:26:42.634Z,95366.97
2023-01-20T04:29:12.028Z,95366.75
2023-01-20T04:31:39.797Z,95381.75
2023-01-20T04:34:08.223Z,95374.47
2023-01-20T04:36:34.712Z,95383.72
2023-01-20T04:39:01.219Z,95395.13
2023-01-20T04:41:27.729Z,95397.63
2023-01-20T04:43:54.299Z,95405.69
2023-01-20T04:46:20.951Z,95408.59
2023-01-20T04:48:47.517Z,95411.34
2023-01-20T04:51:14.255Z,95412.28
2023-01-20T04:53:40.858Z,95419.28
2023-01-20T04:56:11.935Z,95413.94
2023-01-20T04:58:38.845Z,95417.72
2023-01-20T05:01:05.628Z,95427.53
2023-01-20T05:03:32.180Z,95431.69
2023-01-20T05:05:58.701Z,95427.91
2023-01-20T05:08:25.258Z,95431.09
2023-01-20T05:10:51.811Z,95427.50
2023-01-20T05:13:18.668Z,95432.72
2023-01-20T05:15:45.216Z,95431.88
2023-01-20T05:18:11.717Z,95442.31
2023-01-20T05:20:38.323Z,95445.78
2023-01-20T05:23:04.991Z,95451.38
2023-01-20T05:25:31.509Z,95457.19
2023-01-20T05:27:58.839Z,95451.50
2023-01-20T05:30:25.432Z,95453.25
2023-01-20T05:32:52.291Z,95455.16
2023-01-20T05:35:18.803Z,95451.31
2023-01-20T05:37:45.352Z,95446.22
2023-01-20T05:40:12.093Z,95446.84
2023-01-20T05:42:38.621Z,95444.00
2023-01-20T05:45:05.411Z,95447.34
2023-01-20T05:47:31.935Z,95451.13
2023-01-20T05:49:58.409Z,95442.81
2023-01-20T05:52:24.921Z,95440.72
2023-01-20T05:54:51.504Z,95432.38
2023-01-20T05:57:18.446Z,95426.84
2023-01-20T05:59:47.557Z,95444.50
2023-01-20T06:02:18.741Z,95437.09
2023-01-20T06:04:48.977Z,95430.69
2023-01-20T06:07:16.003Z,95437.38
2023-01-20T06:09:42.513Z,95435.09
2023-01-20T06:12:09.099Z,95434.59
2023-01-20T06:14:35.603Z,95434.81
2023-01-20T06:17:02.155Z,95431.66
2023-01-20T06:19:28.658Z,95425.13
2023-01-20T06:21:55.205Z,95429.88
2023-01-20T06:24:21.733Z,95430.91
2023-01-20T06:26:50.121Z,95429.38
2023-01-20T06:29:16.737Z,95425.34
2023-01-20T06:31:44.527Z,95428.44
2023-01-20T06:34:11.645Z,95427.38
2023-01-20T06:36:38.255Z,95424.97
2023-01-20T06:39:04.796Z,95419.16
2023-01-20T06:41:31.314Z,95421.75
2023-01-20T06:43:58.176Z,95419.16
2023-01-20T06:46:24.762Z,95425.09
2023-01-20T06:48:51.447Z,95416.66
2023-01-20T06:51:19.670Z,95420.59
2023-01-20T06:53:46.836Z,95414.44
2023-01-20T06:56:13.893Z,95416.44
2023-01-20T06:58:40.635Z,95408.25
2023-01-20T07:01:08.970Z,95403.41
2023-01-20T07:03:36.019Z,95405.19
2023-01-20T07:06:04.072Z,95406.34
2023-01-20T07:08:30.811Z,95402.56
2023-01-20T07:10:57.548Z,95399.97
2023-01-20T07:13:24.094Z,95404.25
2023-01-20T07:15:50.596Z,95407.56
2023-01-20T07:18:17.082Z,95397.00
2023-01-20T07:20:43.933Z,95402.56
2023-01-20T07:23:10.432Z,95411.09
2023-01-20T07:25:38.174Z,95423.72
2023-01-20T07:28:05.059Z,95425.41
2023-01-20T07:30:31.639Z,95427.66
2023-01-20T07:32:58.174Z,95426.56
2023-01-20T07:35:24.693Z,95432.84
2023-01-20T07:37:51.198Z,95432.13
2023-01-20T07:40:17.932Z,95433.69
2023-01-20T07:42:44.443Z,95437.13
2023-01-20T07:45:11.032Z,95448.28
2023-01-20T07:47:37.537Z,95444.38
2023-01-20T07:50:04.235Z,95448.69
2023-01-20T07:52:30.737Z,95441.94
2023-01-20T07:54:57.213Z,95442.53
2023-01-20T07:57:23.810Z,95441.97
2023-01-20T07:59:50.314Z,95447.91
2023-01-20T08:02:16.835Z,95446.63
2023-01-20T08:04:43.396Z,95441.84
2023-01-20T08:07:09.939Z,95443.78
2023-01-20T08:09:36.455Z,95444.88
2023-01-20T08:12:03.040Z,95448.56
2023-01-20T08:14:29.543Z,95456.44
2023-01-20T08:16:56.066Z,95470.44
2023-01-20T08:19:22.579Z,95469.38
2023-01-20T08:21:49.118Z,95472.00
2023-01-20T08:24:15.661Z,95476.28
2023-01-20T08:26:42.190Z,95481.41
2023-01-20T08:29:10.161Z,95480.22
2023-01-20T08:31:36.987Z,95490.22
2023-01-20T08:34:03.745Z,95489.34
2023-01-20T08:36:32.294Z,95496.03
2023-01-20T08:38:59.741Z,95485.22
2023-01-20T08:41:29.180Z,95490.56
2023-01-20T08:43:55.787Z,95490.06
2023-01-20T08:46:22.753Z,95489.00
2023-01-20T08:48:49.978Z,95496.84
2023-01-20T08:51:20.250Z,95493.53
2023-01-20T08:53:46.805Z,95496.16
2023-01-20T08:56:13.655Z,95505.53
2023-01-20T08:58:40.599Z,95504.94
2023-01-20T09:01:11.122Z,95503.41
2023-01-20T09:03:37.744Z,95505.66
2023-01-20T09:06:04.623Z,95504.59
2023-01-20T09:08:31.177Z,95502.94
2023-01-20T09:11:11.439Z,95503.88
2023-01-20T09:13:38.219Z,95507.31
2023-01-20T09:16:05.171Z,95507.09
2023-01-20T09:18:32.419Z,95508.53
2023-01-20T09:20:59.649Z,95510.88
2023-01-20T09:23:26.517Z,95504.47
2023-01-20T09:25:53.106Z,95514.94
2023-01-20T09:28:19.660Z,95492.66
2023-01-20T09:30:46.167Z,95494.94
2023-01-20T09:33:12.822Z,95496.09
2023-01-20T09:35:39.402Z,95492.03
2023-01-20T09:38:24.589Z,95484.56
2023-01-20T09:41:17.937Z,95492.50
2023-01-20T09:44:00.664Z,95489.16
2023-01-20T09:46:39.510Z,95489.16
2023-01-20T09:49:37.035Z,95483.91
2023-01-20T09:52:29.762Z,95485.44
2023-01-20T09:55:10.329Z,95476.63
2023-01-20T09:57:40.243Z,95481.88
2023-01-20T10:00:17.415Z,95479.81
2023-01-20T10:02:48.645Z,95485.31
2023-01-20T10:05:18.752Z,95477.19
2023-01-20T10:07:55.729Z,95470.88
2023-01-20T10:10:24.979Z,95468.25
2023-01-20T10:12:51.496Z,95469.13
2023-01-20T10:15:37.093Z,95468.84
2023-01-20T10:18:10.156Z,95452.66
2023-01-20T10:20:40.899Z,95455.13
2023-01-20T10:23:10.130Z,95459.53
2023-01-20T10:25:44.219Z,95465.63
2023-01-20T10:28:26.043Z,95467.50
2023-01-20T10:30:52.714Z,95461.91
2023-01-20T10:33:23.942Z,95456.69
2023-01-20T10:35:52.512Z,95457.38
2023-01-20T10:38:31.872Z,95464.53
2023-01-20T10:41:21.556Z,95460.72
2023-01-20T10:43:48.097Z,95454.88
2023-01-20T10:46:17.552Z,95460.25
2023-01-20T10:48:50.317Z,95459.31
2023-01-20T10:51:20.569Z,95455.69
2023-01-20T10:53:59.051Z,95459.16
2023-01-20T10:56:51.766Z,95463.56
2023-01-20T10:59:21.735Z,95451.19
2023-01-20T11:01:59.402Z,95453.53
2023-01-20T11:04:37.344Z,95453.78
2023-01-20T11:07:08.368Z,95445.66
2023-01-20T11:09:37.676Z,95449.16
2023-01-20T11:12:07.334Z,95450.66
2023-01-20T11:14:34.286Z,95454.94
2023-01-20T11:17:04.587Z,95461.47
2023-01-20T11:19:46.804Z,95446.31
2023-01-20T11:22:15.049Z,95456.53
2023-01-20T11:24:42.934Z,95459.88
2023-01-20T11:27:24.260Z,95453.94
2023-01-20T11:30:01.260Z,95458.72
2023-01-20T11:32:35.210Z,95458.69
2023-01-20T11:35:18.057Z,95460.84
2023-01-20T11:37:44.828Z,95460.56
2023-01-20T11:40:22.605Z,95456.06
2023-01-20T11:42:49.641Z,95458.19
2023-01-20T11:45:24.041Z,95457.31
2023-01-20T11:48:00.444Z,95452.22
2023-01-20T11:50:31.628Z,95458.19
2023-01-20T11:53:18.474Z,95462.69
2023-01-20T11:55:46.881Z,95456.75
2023-01-20T11:58:17.366Z,95459.00
2023-01-20T12:00:44.197Z,95458.28
2023-01-20T12:03:10.743Z,95454.03
2023-01-20T12:05:44.057Z,95454.69
2023-01-20T12:08:14.307Z,95458.19
2023-01-20T12:10:41.270Z,95458.19
2023-01-20T12:13:20.061Z,95459.13
2023-01-20T12:15:53.129Z,95459.81
2023-01-20T12:18:50.353Z,95458.19
2023-01-20T12:21:31.966Z,95459.81
2023-01-20T12:24:11.684Z,95463.41
2023-01-20T12:26:38.257Z,95465.31
2023-01-20T12:29:19.632Z,95465.59
2023-01-20T12:31:49.181Z,95457.84
2023-01-20T12:34:17.639Z,95463.34
2023-01-20T12:36:46.950Z,95457.28
2023-01-20T12:39:36.475Z,95460.56
2023-01-20T12:42:12.099Z,95456.69
2023-01-20T12:44:46.248Z,95467.75
2023-01-20T12:47:18.900Z,95459.16
2023-01-20T12:49:54.693Z,95456.81
2023-01-20T12:52:32.797Z,95466.59
2023-01-20T12:55:11.673Z,95467.16
2023-01-20T12:57:38.137Z,95461.91
2023-01-20T13:00:11.087Z,95465.50
2023-01-20T13:03:00.665Z,95470.75
2023-01-20T13:05:46.055Z,95470.63
2023-01-20T13:08:15.427Z,95467.44
2023-01-20T13:11:01.292Z,95477.09
2023-01-20T13:13:55.885Z,95471.59
2023-01-20T13:16:37.055Z,95478.25
2023-01-20T13:19:19.763Z,95479.91
2023-01-20T13:21:59.521Z,95481.13
2023-01-20T13:24:34.364Z,95489.22
2023-01-20T13:27:01.816Z,95490.06
2023-01-20T13:29:37.228Z,95490.19
2023-01-20T13:32:04.881Z,95491.97
2023-01-20T13:34:33.330Z,95494.47
2023-01-20T13:37:11.917Z,95498.63
2023-01-20T13:39:43.088Z,95496.72
2023-01-20T13:42:28.292Z,95497.56
2023-01-20T13:45:22.595Z,95495.88
2023-01-20T13:47:54.300Z,95505.44
2023-01-20T13:50:22.902Z,95500.38
2023-01-20T13:52:52.562Z,95504.03
2023-01-20T13:55:29.286Z,95498.59
2023-01-20T13:57:55.848Z,95505.88
2023-01-20T14:00:22.818Z,95506.97
2023-01-20T14:02:50.426Z,95515.78
2023-01-20T14:05:21.793Z,95514.13
2023-01-20T14:07:48.325Z,95508.03
2023-01-20T14:10:15.254Z,95505.47
2023-01-20T14:12:41.984Z,95506.13
2023-01-20T14:15:22.912Z,95511.25
2023-01-20T14:17:53.314Z,95527.13
2023-01-20T14:20:23.643Z,95515.78
2023-01-20T14:22:50.278Z,95522.09
2023-01-20T14:25:21.864Z,95524.84
2023-01-20T14:27:48.353Z,95530.56
2023-01-20T14:30:17.111Z,95523.00
2023-01-20T14:32:43.807Z,95523.16
2023-01-20T14:35:15.195Z,95522.44
2023-01-20T14:37:41.842Z,95528.47
2023-01-20T14:40:11.369Z,95535.19
2023-01-20T14:42:41.685Z,95531.28
2023-01-20T14:45:18.670Z,95536.06
2023-01-20T14:47:45.577Z,95537.41
2023-01-20T14:50:13.810Z,95535.00
2023-01-20T14:52:40.776Z,95537.88
2023-01-20T14:55:25.783Z,95542.03
2023-01-20T14:57:52.505Z,95544.06
2023-01-20T15:00:19.495Z,95541.56
2023-01-20T15:03:05.260Z,95539.78
2023-01-20T15:05:38.004Z,95546.00
2023-01-20T15:08:05.637Z,95540.97
2023-01-20T15:10:32.493Z,95546.94
2023-01-20T15:12:59.644Z,95554.34
2023-01-20T15:15:28.098Z,95549.09
2023-01-20T15:18:05.143Z,95555.06
2023-01-20T15:20:33.310Z,95555.19
2023-01-20T15:23:00.133Z,95565.56
2023-01-20T15:25:27.711Z,95566.63
2023-01-20T15:27:54.805Z,95560.31
2023-01-20T15:30:24.339Z,95564.13
2023-01-20T15:32:51.955Z,95571.88
2023-01-20T15:35:23.111Z,95569.38
2023-01-20T15:37:50.131Z,95572.59
2023-01-20T15:40:19.925Z,95584.75
2023-01-20T15:42:47.400Z,95583.91
2023-01-20T15:45:15.053Z,95590.94
2023-01-20T15:47:42.282Z,95585.34
2023-01-20T15:50:15.100Z,95593.09
2023-01-20T15:52:41.969Z,95581.31
2023-01-20T15:55:12.194Z,95591.94
2023-01-20T15:57:38.701Z,95585.09
2023-01-20T16:00:06.672Z,95585.22
2023-01-20T16:02:33.221Z,95600.34
2023-01-20T16:04:59.788Z,95596.06
2023-01-20T16:07:27.978Z,95604.41
2023-01-20T16:09:54.554Z,95602.97
2023-01-20T16:12:21.124Z,95605.72
2023-01-20T16:14:47.666Z,95608.94
2023-01-20T16:17:15.639Z,95607.88
2023-01-20T16:19:42.545Z,95615.13
2023-01-20T16:22:10.574Z,95611.94
2023-01-20T16:24:37.998Z,95601.34
2023-01-20T16:27:05.308Z,95618.00
2023-01-20T16:29:31.866Z,95613.59
2023-01-20T16:31:58.474Z,95616.22
2023-01-20T16:34:25.067Z,95603.53
2023-01-20T16:36:51.580Z,95609.78
2023-01-20T16:39:18.104Z,95612.59
2023-01-20T16:41:47.187Z,95603.09
2023-01-20T16:44:13.691Z,95613.25
2023-01-20T16:46:40.249Z,95609.75
2023-01-20T16:49:06.775Z,95615.34
2023-01-20T16:51:33.687Z,95609.28
2023-01-20T16:54:00.304Z,95608.81
2023-01-20T16:56:30.638Z,95613.94
2023-01-20T16:58:57.989Z,95607.03
2023-01-20T17:01:25.273Z,95620.84
2023-01-20T17:03:53.012Z,95622.41
2023-01-20T17:06:20.748Z,95617.28
2023-01-20T17:08:48.616Z,95615.13
2023-01-20T17:11:25.776Z,95610.13
2023-01-20T17:13:52.589Z,95620.25
2023-01-20T17:16:19.755Z,95616.78
2023-01-20T17:18:50.208Z,95620.84
2023-01-20T17:21:17.346Z,95619.06
2023-01-20T17:23:43.909Z,95618.47
2023-01-20T17:26:10.453Z,95606.41
2023-01-20T17:28:36.947Z,95609.50
2023-01-20T17:31:04.414Z,95617.97
2023-01-20T17:33:31.014Z,95617.16
2023-01-20T17:36:01.581Z,95612.59
2023-01-20T17:38:29.148Z,95605.22
2023-01-20T17:41:00.162Z,95608.31
2023-01-20T17:43:26.680Z,95603.53
2023-01-20T17:45:53.195Z,95610.25
2023-01-20T17:48:19.767Z,95608.56
2023-01-20T17:50:46.298Z,95609.91
2023-01-20T17:53:12.989Z,95604.41
2023-01-20T17:55:39.484Z,95604.53
2023-01-20T17:58:06.023Z,95598.91
2023-01-20T18:00:32.523Z,95612.50
2023-01-20T18:02:59.081Z,95603.69
2023-01-20T18:05:27.057Z,95594.88
2023-01-20T18:07:53.571Z,95594.38
2023-01-20T18:10:20.103Z,95596.19
2023-01-20T18:12:46.676Z,95598.69
2023-01-20T18:15:13.259Z,95589.59
2023-01-20T18:17:43.364Z,95602.47
2023-01-20T18:20:11.120Z,95596.66
2023-01-20T18:22:37.675Z,95589.84
2023-01-20T18:25:04.285Z,95591.03
2023-01-20T18:27:30.834Z,95590.09
2023-01-20T18:29:57.362Z,95595.22
2023-01-20T18:32:24.399Z,95582.91
2023-01-20T18:34:50.963Z,95586.75
2023-01-20T18:37:17.432Z,95580.56
2023-01-20T18:39:44.108Z,95585.53
2023-01-20T18:42:10.604Z,95580.78
2023-01-20T18:44:37.119Z,95585.69
2023-01-20T18:47:03.726Z,95575.44
2023-01-20T18:49:30.288Z,95583.66
2023-01-20T18:51:56.796Z,95593.31
2023-01-20T18:54:25.199Z,95590.44
2023-01-20T18:56:51.884Z,95593.66
2023-01-20T18:59:18.397Z,95583.03
2023-01-20T19:01:45.045Z,95582.78
2023-01-20T19:04:12.504Z,95588.84
2023-01-20T19:06:40.418Z,95589.50
2023-01-20T19:09:07.626Z,95594.59
2023-01-20T19:11:36.363Z,95589.50
2023-01-20T19:14:03.304Z,95594.59
2023-01-20T19:16:36.890Z,95593.88
2023-01-20T19:19:04.650Z,95597.44
2023-01-20T19:21:32.545Z,95601.84
2023-01-20T19:24:01.401Z,95602.69
2023-01-20T19:26:28.176Z,95604.84
2023-01-20T19:29:05.725Z,95599.59
2023-01-20T19:31:33.799Z,95603.81
2023-01-20T19:34:00.753Z,95587.44
2023-01-20T19:36:27.324Z,95601.06
2023-01-20T19:38:54.017Z,95598.91
2023-01-20T19:41:22.984Z,95611.09
2023-01-20T19:43:55.439Z,95602.88
2023-01-20T19:46:24.440Z,95607.75
2023-01-20T19:48:51.953Z,95603.22
2023-01-20T19:51:19.810Z,95590.22
2023-01-20T19:53:47.101Z,95607.03
2023-01-20T19:56:15.393Z,95615.72
2023-01-20T19:58:42.482Z,95609.38
2023-01-20T20:01:14.141Z,95614.88
2023-01-20T20:03:40.672Z,95607.97
2023-01-20T20:06:07.996Z,95615.84
2023-01-20T20:08:36.317Z,95609.63
2023-01-20T20:11:03.033Z,95614.44
2023-01-20T20:13:29.559Z,95610.00
2023-01-20T20:16:02.638Z,95618.00
2023-01-20T20:18:29.201Z,95618.72
2023-01-20T20:20:55.741Z,95609.19
2023-01-20T20:23:22.560Z,95629.31
2023-01-20T20:25:49.874Z,95623.47
2023-01-20T20:28:16.421Z,95630.28
2023-01-20T20:30:43.274Z,95628.34
2023-01-20T20:33:09.783Z,95629.31
2023-01-20T20:35:36.780Z,95622.06
2023-01-20T20:38:03.840Z,95625.53
2023-01-20T20:40:30.555Z,95633.59
2023-01-20T20:42:57.142Z,95638.13
2023-01-20T20:45:23.668Z,95646.81
2023-01-20T20:47:50.159Z,95641.81
2023-01-20T20:50:17.176Z,95645.41
2023-01-20T20:52:46.239Z,95652.16
2023-01-20T20:55:13.065Z,95653.22
2023-01-20T20:57:39.684Z,95641.34
2023-01-20T21:00:06.605Z,95646.09
2023-01-20T21:02:33.832Z,95647.28
2023-01-20T21:05:00.444Z,95642.16
2023-01-20T21:07:26.957Z,95650.84
2023-01-20T21:09:53.516Z,95653.91
2023-01-20T21:12:20.055Z,95656.06
2023-01-20T21:14:46.528Z,95653.81
2023-01-20T21:17:13.103Z,95656.81
2023-01-20T21:19:39.698Z,95652.63
2023-01-20T21:22:06.282Z,95648.97
2023-01-20T21:24:32.854Z,95643.00
2023-01-20T21:27:00.580Z,95649.56
2023-01-20T21:29:27.681Z,95646.47
2023-01-20T21:31:54.339Z,95647.53
2023-01-20T21:34:20.920Z,95645.66
2023-01-20T21:36:47.423Z,95647.78
2023-01-20T21:39:15.209Z,95642.19
2023-01-20T21:41:42.199Z,95650.63
2023-01-20T21:44:32.976Z,95659.47
2023-01-20T21:47:00.934Z,95670.03
2023-01-20T21:49:46.475Z,95663.59
2023-01-20T21:52:33.094Z,95671.34
2023-01-20T21:54:59.699Z,95675.25
2023-01-20T21:57:26.295Z,95674.06
2023-01-20T21:59:52.828Z,95677.63
2023-01-20T22:02:19.489Z,95673.97
2023-01-20T22:04:46.276Z,95684.69
2023-01-20T22:07:13.506Z,95684.44
2023-01-20T22:09:40.096Z,95688.69
2023-01-20T22:12:07.141Z,95683.31
2023-01-20T22:14:33.652Z,95675.81
2023-01-20T22:17:00.276Z,95688.31
2023-01-20T22:19:27.192Z,95680.00
2023-01-20T22:21:56.907Z,95690.03
2023-01-20T22:24:23.552Z,95696.59
2023-01-20T22:26:50.070Z,95685.38
2023-01-20T22:29:17.565Z,95696.09
2023-01-20T22:31:44.668Z,95692.09
2023-01-20T22:34:11.403Z,95694.69
2023-01-20T22:36:37.968Z,95700.06
2023-01-20T22:39:06.153Z,95691.09
2023-01-20T22:41:32.666Z,95696.22
2023-01-20T22:43:59.382Z,95690.41
2023-01-20T22:46:27.166Z,95696.34
2023-01-20T22:48:55.347Z,95695.84
2023-01-20T22:51:22.657Z,95701.91
2023-01-20T22:53:49.657Z,95691.78
2023-01-20T22:56:18.314Z,95699.09
2023-01-20T22:58:45.218Z,95693.97
2023-01-20T23:01:22.317Z,95688.94
2023-01-20T23:03:53.043Z,95687.75
2023-01-20T23:06:19.662Z,95681.06
2023-01-20T23:08:46.131Z,95690.34
2023-01-20T23:11:14.219Z,95684.63
2023-01-20T23:13:40.991Z,95689.13
2023-01-20T23:16:10.062Z,95679.63
2023-01-20T23:18:36.861Z,95673.41
2023-01-20T23:21:06.024Z,95672.72
2023-01-20T23:23:32.922Z,95669.53
2023-01-20T23:26:12.466Z,95672.97
2023-01-20T23:28:38.963Z,95666.97
2023-01-20T23:31:06.860Z,95681.75
2023-01-20T23:33:33.679Z,95677.06
2023-01-20T23:36:04.303Z,95673.84
2023-01-20T23:38:31.216Z,95677.16
2023-01-20T23:40:58.153Z,95673.81
2023-01-20T23:43:24.648Z,95668.72
2023-01-20T23:45:51.244Z,95664.34
2023-01-20T23:48:18.168Z,95658.06
2023-01-20T23:50:45.735Z,95665.44
2023-01-20T23:53:14.537Z,95657.00
2023-01-20T23:55:41.026Z,95661.34
2023-01-20T23:58:07.506Z,95657.69
